Time;durP1;ratioP1;P1;durP2;ratioP2;P2;SDS_P1;SDS_P2;PMS_P1;PMS_P2;Temp;Humidity;BMP_temperature;BMP_pressure;BME280_temperature;BME280_humidity;BME280_pressure;Samples;Min_cycle;Max_cycle;Signal;HPM_P1;HPM_P2
2023/07/13 00:01:12;;;;;;;10.80;4.80;;;;;;;25.54;45.06;95413.44;5013870;28;20416;-79
2023/07/13 00:03:40;;;;;;;11.95;4.68;;;;;;;26.22;45.22;95510.41;5014090;28;20115;-79
2023/07/13 00:06:07;;;;;;;9.90;4.65;;;;;;;26.16;45.37;95489.34;5014239;28;20116;-79
2023/07/13 00:08:33;;;;;;;8.98;4.60;;;;;;;26.13;45.44;95483.50;5031721;28;20040;-79
2023/07/13 00:10:59;;;;;;;13.00;5.25;;;;;;;25.70;45.51;95416.84;5031708;28;20033;-79
2023/07/13 00:13:25;;;;;;;10.70;4.88;;;;;;;26.20;45.67;95510.00;5031544;28;20042;-79
2023/07/13 00:15:50;;;;;;;10.23;4.85;;;;;;;25.90;46.08;95465.66;5013653;28;20029;-79
2023/07/13 00:18:16;;;;;;;10.05;4.82;;;;;;;26.14;46.20;95506.03;5031752;28;20113;-79
2023/07/13 00:20:41;;;;;;;9.90;4.90;;;;;;;25.81;45.97;95465.09;5013501;28;20037;-79
2023/07/13 00:23:07;;;;;;;9.10;4.57;;;;;;;25.92;45.87;95476.94;5013420;28;20205;-79
2023/07/13 00:25:33;;;;;;;10.43;4.95;;;;;;;25.93;46.31;95479.31;5013433;28;20095;-79
2023/07/13 00:27:58;;;;;;;9.52;4.95;;;;;;;25.73;46.74;95467.72;5031164;28;20042;-79
2023/07/13 00:30:23;;;;;;;9.35;4.80;;;;;;;25.95;46.88;95492.50;5031690;28;20488;-79
2023/07/13 00:32:49;;;;;;;8.20;4.90;;;;;;;25.84;46.87;95470.59;5012968;28;20033;-79
2023/07/13 00:35:15;;;;;;;9.77;5.10;;;;;;;25.81;46.90;95478.69;5013269;28;20040;-79
2023/07/13 00:37:41;;;;;;;9.30;5.20;;;;;;;25.77;47.09;95475.94;5013400;28;20033;-78
2023/07/13 00:40:08;;;;;;;16.20;5.15;;;;;;;25.49;47.42;95445.53;5031270;28;20407;-79
2023/07/13 00:42:33;;;;;;;10.65;4.93;;;;;;;25.75;47.42;95480.94;5013633;28;20025;-79
2023/07/13 00:45:07;;;;;;;10.80;5.18;;;;;;;25.71;47.50;95486.28;5013010;28;20034;-79
2023/07/13 00:47:32;;;;;;;10.35;5.00;;;;;;;25.32;47.65;95434.03;5013135;28;20037;-78
2023/07/13 00:49:59;;;;;;;11.15;5.00;;;;;;;25.43;48.24;95463.28;5030879;28;20029;-79
2023/07/13 00:52:24;;;;;;;11.52;5.55;;;;;;;25.50;48.16;95476.97;5013331;28;20033;-79
2023/07/13 00:54:50;;;;;;;12.13;5.30;;;;;;;25.15;48.42;95423.63;5013121;28;20128;-79
2023/07/13 00:57:20;;;;;;;9.60;4.63;;;;;;;25.39;48.79;95487.66;5013161;28;20045;-79
2023/07/13 00:59:51;;;;;;;14.00;5.20;;;;;;;25.31;49.17;95478.59;5031571;28;20029;-80
2023/07/13 01:02:17;;;;;;;13.20;5.55;;;;;;;25.13;49.22;95444.91;5031386;28;20407;-79
2023/07/13 01:04:43;;;;;;;12.85;5.18;;;;;;;25.24;49.58;95481.19;5030598;28;20526;-80
2023/07/13 01:07:10;;;;;;;13.15;5.65;;;;;;;25.23;49.35;95481.53;5012011;28;20503;-80
2023/07/13 01:09:36;;;;;;;14.70;6.53;;;;;;;25.22;49.74;95478.03;5029548;28;20435;-80
2023/07/13 01:12:01;;;;;;;9.40;5.15;;;;;;;24.74;50.08;95408.06;5029738;28;20025;-80
2023/07/13 01:14:27;;;;;;;10.98;5.93;;;;;;;24.95;50.59;95441.06;5030002;28;20036;-80
2023/07/13 01:16:54;;;;;;;10.60;5.20;;;;;;;24.70;50.60;95399.88;5030024;28;20068;-80
2023/07/13 01:19:19;;;;;;;13.48;6.97;;;;;;;25.23;50.58;95482.31;5011923;28;20036;-80
2023/07/13 01:21:50;;;;;;;10.27;6.18;;;;;;;25.26;50.69;95483.50;5030000;28;20037;-80
2023/07/13 01:24:15;;;;;;;17.63;6.55;;;;;;;24.96;50.66;95426.34;5012050;28;20053;-80
2023/07/13 01:26:41;;;;;;;11.35;5.95;;;;;;;25.09;50.84;95435.94;5011848;28;20100;-80
2023/07/13 01:29:07;;;;;;;14.82;5.95;;;;;;;25.26;51.04;95472.66;5011715;28;20033;-80
2023/07/13 01:31:33;;;;;;;17.20;6.70;;;;;;;25.08;51.16;95450.63;5011960;28;20038;-80
2023/07/13 01:33:58;;;;;;;13.95;6.90;;;;;;;25.20;51.17;95464.03;5029338;28;20032;-80
2023/07/13 01:36:24;;;;;;;11.57;5.90;;;;;;;25.19;51.52;95476.03;5032845;28;20048;-80
2023/07/13 01:38:49;;;;;;;17.77;6.53;;;;;;;25.18;51.58;95479.09;5015924;28;20045;-80
2023/07/13 01:41:15;;;;;;;14.10;6.38;;;;;;;24.96;51.76;95458.91;5033154;28;20043;-80
2023/07/13 01:43:40;;;;;;;14.85;6.57;;;;;;;24.78;52.16;95452.34;5033350;28;20420;-80
2023/07/13 01:46:06;;;;;;;12.52;6.20;;;;;;;24.80;52.35;95450.81;5015532;28;20036;-80
2023/07/13 01:48:31;;;;;;;14.30;6.25;;;;;;;24.71;52.21;95441.34;5015346;28;20034;-80
2023/07/13 01:50:56;;;;;;;13.85;6.97;;;;;;;24.93;52.44;95476.72;5015293;28;20041;-80
2023/07/13 01:53:22;;;;;;;9.98;5.63;;;;;;;24.83;52.80;95454.75;5015380;28;20118;-81
2023/07/13 01:55:47;;;;;;;13.40;6.15;;;;;;;24.64;53.01;95450.13;5015107;28;20080;-81
2023/07/13 01:58:13;;;;;;;9.05;6.45;;;;;;;24.55;53.55;95450.34;5015290;28;20492;-81
2023/07/13 02:00:38;;;;;;;9.77;6.70;;;;;;;24.72;53.25;95464.63;5015431;28;20480;-81
2023/07/13 02:03:04;;;;;;;13.57;6.43;;;;;;;24.73;53.27;95471.59;5015019;28;20033;-81
2023/07/13 02:05:29;;;;;;;15.75;6.80;;;;;;;23.56;53.43;95304.56;5033353;28;20025;-81
2023/07/13 02:07:55;;;;;;;14.65;6.45;;;;;;;24.12;53.42;95388.97;5014888;28;20080;-81
2023/07/13 02:10:20;;;;;;;14.18;6.40;;;;;;;24.78;53.38;95490.31;5014888;28;20072;-81
2023/07/13 02:12:45;;;;;;;11.02;5.88;;;;;;;24.60;53.48;95458.19;5015006;28;20045;-81
2023/07/13 02:15:11;;;;;;;14.82;6.43;;;;;;;24.80;53.55;95488.00;5015094;28;20036;-81
2023/07/13 02:17:37;;;;;;;14.85;6.07;;;;;;;24.70;53.61;95467.69;5014953;28;20033;-81
2023/07/13 02:20:04;;;;;;;12.15;6.25;;;;;;;24.72;53.88;95472.75;5032630;28;20529;-81
2023/07/13 02:22:30;;;;;;;11.43;5.88;;;;;;;24.82;53.71;95480.31;5014689;28;20522;-81
2023/07/13 02:24:55;;;;;;;20.70;6.47;;;;;;;24.66;54.13;95455.16;5014600;28;20041;-81
2023/07/13 02:27:21;;;;;;;19.08;7.43;;;;;;;24.68;53.75;95478.09;5032324;28;20060;-81
2023/07/13 02:29:46;;;;;;;12.32;6.35;;;;;;;24.51;53.91;95449.47;5014564;28;20128;-81
2023/07/13 02:32:11;;;;;;;10.82;6.05;;;;;;;24.57;54.06;95463.50;5014592;28;20105;-81
2023/07/13 02:34:37;;;;;;;12.25;6.75;;;;;;;24.67;53.98;95473.00;5032460;28;20033;-81
2023/07/13 02:37:03;;;;;;;9.93;6.82;;;;;;;24.31;54.12;95422.69;5014443;28;20041;-81
2023/07/13 02:39:28;;;;;;;16.50;7.72;;;;;;;24.55;53.96;95463.88;5014230;28;20037;-81
2023/07/13 02:41:54;;;;;;;12.20;6.50;;;;;;;24.41;54.03;95450.00;5014212;28;20072;-82
2023/07/13 02:44:19;;;;;;;12.18;6.70;;;;;;;24.66;54.54;95493.91;5014500;28;20025;-81
2023/07/13 02:46:45;;;;;;;14.50;6.85;;;;;;;23.99;54.58;95398.34;5014281;28;20041;-81
2023/07/13 02:49:10;;;;;;;11.35;6.85;;;;;;;24.55;54.82;95488.28;5014519;28;20107;-81
2023/07/13 02:51:36;;;;;;;17.08;6.60;;;;;;;24.44;54.75;95478.34;5032408;28;20045;-81
2023/07/13 02:54:02;;;;;;;16.55;6.85;;;;;;;24.55;55.07;95498.34;5014272;28;20037;-81
2023/07/13 02:56:29;;;;;;;12.00;6.75;;;;;;;24.40;54.83;95463.94;5014165;28;20033;-81
2023/07/13 02:58:54;;;;;;;15.63;6.70;;;;;;;24.50;54.96;95499.38;5014374;28;20466;-81
2023/07/13 03:01:21;;;;;;;13.10;6.35;;;;;;;24.54;54.67;95494.06;5014080;28;20472;-81
2023/07/13 03:03:47;;;;;;;13.02;6.13;;;;;;;24.45;54.89;95486.13;5013667;28;20045;-81
2023/07/13 03:06:14;;;;;;;26.27;7.38;;;;;;;24.40;55.03;95474.78;5013707;28;20108;-81
2023/07/13 03:08:42;;;;;;;12.93;7.03;;;;;;;24.34;55.21;95468.81;5031507;28;20037;-81
2023/07/13 03:11:12;;;;;;;16.80;8.05;;;;;;;24.35;55.11;95478.53;5013853;28;20042;-81
2023/07/13 03:13:38;;;;;;;18.48;7.43;;;;;;;24.30;55.40;95467.19;5031725;28;20037;-81
2023/07/13 03:16:05;;;;;;;18.42;7.43;;;;;;;24.46;55.43;95495.03;5013819;28;20041;-81
2023/07/13 03:18:31;;;;;;;24.05;7.97;;;;;;;24.44;55.33;95483.75;5013662;28;20079;-82
2023/07/13 03:20:56;;;;;;;21.08;7.15;;;;;;;24.32;55.59;95473.84;5013687;28;20041;-81
2023/07/13 03:23:22;;;;;;;17.50;7.30;;;;;;;24.36;56.18;95501.78;5031859;28;20045;-81
2023/07/13 03:25:48;;;;;;;16.02;7.30;;;;;;;24.11;56.28;95473.31;5031030;28;20064;-82
2023/07/13 03:28:15;;;;;;;17.35;7.90;;;;;;;24.33;56.43;95504.44;5013229;28;20550;-81
2023/07/13 03:30:41;;;;;;;16.58;7.43;;;;;;;24.31;56.22;95499.38;5013220;28;20550;-81
2023/07/13 03:33:07;;;;;;;22.73;9.05;;;;;;;24.40;56.16;95515.44;5013571;28;20044;-81
2023/07/13 03:35:32;;;;;;;19.77;8.32;;;;;;;24.31;56.52;95496.66;5031327;28;20029;-81
2023/07/13 03:37:59;;;;;;;20.02;8.52;;;;;;;24.35;56.50;95502.13;5030984;28;20527;-81
2023/07/13 03:40:26;;;;;;;14.85;7.80;;;;;;;24.42;56.78;95518.56;5013435;28;20030;-81
2023/07/13 03:42:52;;;;;;;19.63;8.25;;;;;;;24.29;56.95;95503.56;5031331;28;20392;-81
2023/07/13 03:45:18;;;;;;;18.77;8.23;;;;;;;24.24;56.82;95485.66;5031344;28;20025;-81
2023/07/13 03:47:43;;;;;;;17.98;8.13;;;;;;;24.46;56.92;95508.59;5013390;28;20041;-81
2023/07/13 03:50:09;;;;;;;24.17;9.23;;;;;;;24.45;56.64;95510.53;5030833;28;20033;-81
2023/07/13 03:52:34;;;;;;;17.67;7.82;;;;;;;24.34;56.64;95482.38;5013168;28;20464;-81
2023/07/13 03:55:00;;;;;;;14.85;8.85;;;;;;;24.24;57.19;95499.22;5030600;28;20108;-81
2023/07/13 03:57:25;;;;;;;16.08;9.30;;;;;;;24.32;56.73;95511.78;5012677;28;20030;-81
2023/07/13 03:59:51;;;;;;;18.20;9.45;;;;;;;24.27;57.00;95492.28;5012812;28;20033;-81
2023/07/13 04:02:17;;;;;;;17.77;9.15;;;;;;;24.41;56.59;95493.38;5012951;28;20033;-81
2023/07/13 04:04:43;;;;;;;15.60;9.38;;;;;;;24.35;56.47;95480.47;5030900;28;20087;-81
2023/07/13 04:07:08;;;;;;;13.40;9.23;;;;;;;24.60;55.99;95506.19;5012827;28;20116;-81
2023/07/13 04:09:34;;;;;;;18.05;8.77;;;;;;;24.40;55.67;95491.84;5012909;28;20126;-81
2023/07/13 04:12:00;;;;;;;13.43;8.70;;;;;;;24.53;55.51;95484.34;5012370;28;20057;-81
2023/07/13 04:14:25;;;;;;;20.13;8.77;;;;;;;24.59;54.82;95491.84;5012736;28;20131;-81
2023/07/13 04:16:51;;;;;;;19.15;8.50;;;;;;;24.54;54.66;95472.38;5030252;28;20033;-81
2023/07/13 04:19:17;;;;;;;16.15;9.80;;;;;;;24.84;54.40;95510.56;5012807;28;20480;-81
2023/07/13 04:21:42;;;;;;;13.15;8.27;;;;;;;24.89;54.38;95513.00;5012525;28;20053;-81
2023/07/13 04:24:08;;;;;;;19.60;8.98;;;;;;;24.52;54.48;95461.88;5030103;28;20778;-81
2023/07/13 04:26:35;;;;;;;17.73;9.18;;;;;;;24.86;54.47;95522.66;5030265;28;20060;-81
2023/07/13 04:29:03;;;;;;;15.10;8.32;;;;;;;24.89;54.35;95515.72;5030614;28;20112;-81
2023/07/13 04:31:29;;;;;;;17.88;8.38;;;;;;;24.80;54.28;95502.34;5012549;28;20040;-81
2023/07/13 04:33:54;;;;;;;14.60;8.93;;;;;;;24.88;54.09;95530.41;5029948;28;20234;-81
2023/07/13 04:36:20;;;;;;;17.88;9.13;;;;;;;24.61;53.76;95483.38;5012431;28;20037;-81
2023/07/13 04:38:45;;;;;;;17.77;8.32;;;;;;;24.92;53.83;95525.88;5012361;28;20526;-82
2023/07/13 04:41:13;;;;;;;14.50;7.47;;;;;;;24.88;53.78;95517.63;5012466;28;20466;-81
2023/07/13 04:43:38;;;;;;;15.35;8.82;;;;;;;24.91;53.18;95521.59;5029526;28;20041;-81
2023/07/13 04:46:10;;;;;;;15.25;8.23;;;;;;;24.93;52.90;95519.31;5012171;28;20079;-81
2023/07/13 04:48:36;;;;;;;12.52;7.90;;;;;;;25.05;52.81;95535.47;5030042;28;20041;-81
2023/07/13 04:51:02;;;;;;;14.90;8.60;;;;;;;24.94;53.35;95518.19;5015961;28;20083;-81
2023/07/13 04:53:28;;;;;;;17.73;8.57;;;;;;;24.97;52.96;95529.09;5040018;28;20601;-81
2023/07/13 04:55:54;;;;;;;14.18;8.52;;;;;;;25.09;51.86;95538.25;5019300;28;20041;-81
2023/07/13 04:58:21;;;;;;;17.45;8.98;;;;;;;25.13;51.97;95539.09;5023163;28;20078;-81
2023/07/13 05:00:47;;;;;;;18.33;8.45;;;;;;;25.19;52.20;95546.59;5047034;28;20063;-81
2023/07/13 05:03:12;;;;;;;14.10;10.98;;;;;;;24.90;52.68;95492.88;5025474;28;20061;-81
2023/07/13 05:05:38;;;;;;;24.98;11.18;;;;;;;24.87;53.86;95526.16;4991400;28;20033;-81
2023/07/13 05:08:03;;;;;;;22.83;11.48;;;;;;;24.93;53.89;95524.75;5027042;28;20106;-82
2023/07/13 05:10:29;;;;;;;23.38;11.15;;;;;;;25.02;53.92;95544.31;5032479;28;20040;-81
2023/07/13 05:12:54;;;;;;;19.25;10.73;;;;;;;24.80;54.35;95521.34;5053148;28;20189;-81
2023/07/13 05:15:22;;;;;;;20.02;11.18;;;;;;;25.16;53.61;95549.25;5051166;28;20472;-81
2023/07/13 05:17:49;;;;;;;24.55;11.43;;;;;;;25.23;53.11;95557.53;5032847;28;20033;-81
2023/07/13 05:20:15;;;;;;;20.58;10.60;;;;;;;25.33;52.51;95555.00;5014406;28;20392;-81
2023/07/13 05:22:42;;;;;;;20.60;9.93;;;;;;;25.24;52.64;95527.31;5014988;28;20124;-81
2023/07/13 05:25:08;;;;;;;21.27;10.38;;;;;;;25.38;52.48;95545.81;5014278;28;20164;-81
2023/07/13 05:27:35;;;;;;;21.27;10.50;;;;;;;24.88;52.68;95459.88;5030722;28;20554;-81
2023/07/13 05:30:01;;;;;;;18.67;10.15;;;;;;;25.11;52.81;95493.31;5040151;28;20074;-81
2023/07/13 05:32:26;;;;;;;22.75;10.50;;;;;;;25.55;52.71;95552.72;5051843;28;20447;-81
2023/07/13 05:34:52;;;;;;;18.65;11.55;;;;;;;25.63;52.36;95557.16;5029783;28;20037;-82
2023/07/13 05:37:18;;;;;;;21.02;10.80;;;;;;;25.65;52.42;95554.84;5021137;28;20304;-81
2023/07/13 05:39:43;;;;;;;22.23;10.98;;;;;;;25.35;52.22;95512.00;5047456;28;20029;-80
2023/07/13 05:42:09;;;;;;;21.75;11.68;;;;;;;25.52;51.82;95542.56;5034200;28;20048;-81
2023/07/13 05:44:35;;;;;;;21.98;11.15;;;;;;;25.60;51.75;95555.16;5016664;28;20025;-81
2023/07/13 05:47:01;;;;;;;22.88;11.50;;;;;;;25.47;51.74;95535.50;5033232;28;20029;-81
2023/07/13 05:49:26;;;;;;;21.67;10.57;;;;;;;25.78;51.64;95555.50;5015218;28;20052;-81
2023/07/13 05:51:52;;;;;;;25.75;11.07;;;;;;;25.08;51.72;95439.78;5013280;28;20037;-81
2023/07/13 05:54:17;;;;;;;18.10;10.05;;;;;;;25.89;51.49;95559.16;5032965;28;20069;-82
2023/07/13 05:56:42;;;;;;;25.00;10.65;;;;;;;25.74;51.48;95523.59;5008749;28;20126;-81
2023/07/13 05:59:08;;;;;;;15.40;10.07;;;;;;;25.91;51.69;95530.50;5014264;28;20029;-81
2023/07/13 06:01:33;;;;;;;18.63;10.80;;;;;;;25.73;51.24;95521.25;5031431;28;20032;-81
2023/07/13 06:03:59;;;;;;;19.90;10.15;;;;;;;26.01;51.13;95540.78;5014671;28;20041;-81
2023/07/13 06:06:24;;;;;;;17.05;10.15;;;;;;;26.05;50.99;95527.22;5043062;28;20041;-81
2023/07/13 06:08:50;;;;;;;22.33;9.93;;;;;;;26.19;51.06;95543.75;5052417;28;20040;-81
2023/07/13 06:11:27;;;;;;;19.02;9.70;;;;;;;26.13;50.99;95545.22;5033457;28;20033;-81
2023/07/13 06:13:53;;;;;;;13.63;9.30;;;;;;;26.17;51.18;95545.28;5000586;28;20079;-81
2023/07/13 06:16:19;;;;;;;23.33;10.20;;;;;;;26.09;51.85;95538.94;5032496;28;20387;-82
2023/07/13 06:18:46;;;;;;;18.80;8.98;;;;;;;25.92;51.26;95490.53;5033301;28;20059;-81
2023/07/13 06:21:22;;;;;;;21.48;10.40;;;;;;;26.29;50.68;95551.34;5014591;28;20084;-81
2023/07/13 06:23:50;;;;;;;17.83;9.48;;;;;;;26.38;50.77;95551.09;5033909;28;20475;-81
2023/07/13 06:26:16;;;;;;;14.43;8.68;;;;;;;26.40;50.57;95556.91;5045167;28;20404;-81
2023/07/13 06:28:42;;;;;;;16.42;9.65;;;;;;;26.20;50.51;95517.34;5014748;28;20029;-81
2023/07/13 06:31:10;;;;;;;17.95;9.52;;;;;;;26.44;50.03;95550.41;5013009;28;20041;-81
2023/07/13 06:33:36;;;;;;;16.77;9.30;;;;;;;26.48;49.94;95545.00;5023238;28;20029;-82
2023/07/13 06:36:03;;;;;;;22.88;11.75;;;;;;;26.30;49.71;95514.06;5025375;28;20562;-81
2023/07/13 06:38:29;;;;;;;20.98;9.35;;;;;;;26.60;49.25;95539.38;5033208;28;20044;-81
2023/07/13 06:40:54;;;;;;;18.08;10.32;;;;;;;26.56;48.79;95549.41;5033458;28;20041;-81
2023/07/13 06:43:20;;;;;;;22.50;9.70;;;;;;;26.60;48.91;95550.25;5050940;28;20058;-81
2023/07/13 06:45:48;;;;;;;20.35;9.90;;;;;;;26.28;48.72;95475.56;5021348;28;20442;-81
2023/07/13 06:48:14;;;;;;;22.52;9.57;;;;;;;26.85;48.72;95547.88;5050856;28;20692;-81
2023/07/13 06:50:41;;;;;;;21.58;9.77;;;;;;;26.93;49.15;95544.09;5020380;28;20545;-81
2023/07/13 06:53:09;;;;;;;22.92;9.10;;;;;;;26.77;48.84;95503.47;5044553;28;20041;-81
2023/07/13 06:55:35;;;;;;;22.38;9.60;;;;;;;27.00;48.85;95548.88;5028250;28;20170;-81
2023/07/13 06:58:00;;;;;;;22.80;9.50;;;;;;;26.89;47.98;95518.75;5016242;28;20119;-81
2023/07/13 07:00:26;;;;;;;24.70;9.45;;;;;;;26.89;47.58;95505.16;5026113;28;20102;-81
2023/07/13 07:02:51;;;;;;;24.00;9.25;;;;;;;27.11;47.70;95549.78;5042162;28;20052;-81
2023/07/13 07:05:17;;;;;;;22.75;9.95;;;;;;;27.08;47.39;95542.38;5035702;28;20034;-81
2023/07/13 07:07:42;;;;;;;32.05;10.48;;;;;;;27.11;47.25;95536.97;5033920;28;20364;-82
2023/07/13 07:10:08;;;;;;;17.55;8.80;;;;;;;27.19;47.07;95535.88;5027249;28;20041;-82
2023/07/13 07:12:33;;;;;;;20.55;10.30;;;;;;;26.83;46.70;95480.22;5032007;28;20044;-82
2023/07/13 07:14:59;;;;;;;18.88;10.48;;;;;;;27.40;46.38;95540.00;5027402;28;20033;-81
2023/07/13 07:17:25;;;;;;;22.52;9.65;;;;;;;27.37;46.17;95522.50;5031187;28;20380;-81
2023/07/13 07:19:51;;;;;;;18.75;9.27;;;;;;;27.47;46.02;95540.88;5028122;28;20473;-82
2023/07/13 07:22:16;;;;;;;13.60;8.98;;;;;;;27.27;45.57;95495.91;5050788;28;20111;-81
2023/07/13 07:24:42;;;;;;;19.90;8.27;;;;;;;27.37;45.89;95492.53;5032237;28;20104;-81
2023/07/13 07:27:07;;;;;;;21.35;8.27;;;;;;;27.60;46.02;95528.59;5050413;28;20041;-81
2023/07/13 07:29:33;;;;;;;17.83;9.02;;;;;;;27.58;45.89;95525.47;5032029;28;20036;-81
2023/07/13 07:31:59;;;;;;;15.23;9.00;;;;;;;27.49;46.00;95494.97;5050262;28;20110;-82
2023/07/13 07:34:25;;;;;;;21.88;9.52;;;;;;;27.75;46.28;95520.56;5049846;28;20032;-81
2023/07/13 07:36:50;;;;;;;14.73;9.30;;;;;;;27.28;45.10;95448.47;5050397;28;20037;-82
2023/07/13 07:39:16;;;;;;;22.35;9.02;;;;;;;27.81;44.83;95527.22;5032053;28;20025;-82
2023/07/13 07:41:42;;;;;;;13.70;8.60;;;;;;;27.78;45.06;95501.50;5024625;28;20044;-82
2023/07/13 07:44:09;;;;;;;17.63;8.98;;;;;;;27.53;44.96;95471.34;5030213;28;20040;-82
2023/07/13 07:46:35;;;;;;;19.95;9.32;;;;;;;27.95;44.85;95513.72;5029461;28;20102;-82
2023/07/13 07:49:00;;;;;;;14.90;8.95;;;;;;;27.85;45.18;95492.59;5032264;28;20491;-81
2023/07/13 07:51:26;;;;;;;22.65;9.18;;;;;;;27.82;45.16;95477.81;5049816;28;20024;-81
2023/07/13 07:53:51;;;;;;;13.60;8.35;;;;;;;28.08;45.64;95514.22;5049233;28;20048;-81
2023/07/13 07:56:17;;;;;;;19.45;8.88;;;;;;;27.88;46.42;95489.94;5032315;28;20032;-82
2023/07/13 07:58:43;;;;;;;19.83;9.27;;;;;;;28.07;45.48;95488.13;5028556;28;20099;-81
2023/07/13 08:01:08;;;;;;;14.98;7.95;;;;;;;28.14;44.93;95490.91;5029653;28;20028;-82
2023/07/13 08:03:34;;;;;;;18.17;8.52;;;;;;;28.20;44.96;95487.47;5049329;28;20091;-81
2023/07/13 08:06:00;;;;;;;18.33;8.85;;;;;;;28.31;44.68;95484.81;5031397;28;20558;-81
2023/07/13 08:08:25;;;;;;;21.55;8.15;;;;;;;28.07;45.87;95439.84;5049894;28;20036;-81
2023/07/13 08:10:51;;;;;;;17.88;8.85;;;;;;;28.17;45.42;95452.78;5027213;28;20036;-81
2023/07/13 08:13:17;;;;;;;20.60;9.20;;;;;;;28.32;44.68;95476.25;5031646;28;20459;-82
2023/07/13 08:15:43;;;;;;;19.02;9.07;;;;;;;28.35;44.95;95463.81;5007446;28;20093;-82
2023/07/13 08:18:09;;;;;;;21.10;8.93;;;;;;;28.55;44.63;95480.69;5031198;28;20132;-81
2023/07/13 08:20:38;;;;;;;25.88;8.75;;;;;;;28.64;44.97;95476.44;5021913;28;20103;-82
2023/07/13 08:23:03;;;;;;;15.50;8.48;;;;;;;28.74;43.56;95481.19;5023315;28;20124;-82
2023/07/13 08:25:29;;;;;;;22.77;8.98;;;;;;;28.58;43.98;95456.16;5036607;28;20107;-81
2023/07/13 08:27:54;;;;;;;22.88;9.70;;;;;;;28.85;44.27;95477.75;5011275;28;20049;-82
2023/07/13 08:30:20;;;;;;;19.23;8.80;;;;;;;28.54;43.97;95435.47;5029672;28;20032;-82
2023/07/13 08:32:45;;;;;;;19.33;9.25;;;;;;;28.60;43.85;95423.81;5014439;28;20183;-82
2023/07/13 08:35:11;;;;;;;19.38;8.45;;;;;;;29.05;44.27;95479.78;5032742;28;20045;-82
2023/07/13 08:37:36;;;;;;;22.15;9.30;;;;;;;28.73;44.16;95421.53;5014207;28;20033;-82
2023/07/13 08:40:02;;;;;;;22.63;8.65;;;;;;;28.49;44.02;95382.06;5030850;28;20037;-81
2023/07/13 08:42:33;;;;;;;20.45;8.48;;;;;;;29.13;43.32;95466.94;5044496;28;20029;-81
2023/07/13 08:45:16;;;;;;;20.65;8.18;;;;;;;29.02;44.09;95466.91;5030438;28;20029;-82
2023/07/13 08:47:50;;;;;;;20.30;9.50;;;;;;;29.05;43.09;95447.03;5049259;28;20017;-81
2023/07/13 08:50:19;;;;;;;25.40;9.25;;;;;;;29.23;43.07;95466.19;5049036;28;20048;-82
2023/07/13 08:52:46;;;;;;;22.40;8.98;;;;;;;29.22;42.02;95469.31;5020609;28;20149;-82
2023/07/13 08:55:25;;;;;;;19.85;8.27;;;;;;;29.39;42.07;95469.38;5015745;28;20606;-82
2023/07/13 08:58:06;;;;;;;17.55;8.75;;;;;;;29.41;42.30;95472.50;5015284;28;20099;-81
2023/07/13 09:01:00;;;;;;;22.35;9.07;;;;;;;27.85;41.84;95231.75;5046595;28;20568;-82
2023/07/13 09:03:35;;;;;;;26.08;9.02;;;;;;;29.50;41.71;95489.31;5009144;28;20040;-91
2023/07/13 09:06:02;;;;;;;15.07;8.50;;;;;;;29.11;41.17;95429.09;5031223;28;20029;-86
2023/07/13 09:09:03;;;;;;;20.17;8.90;;;;;;;29.43;41.46;95494.78;5022871;28;20033;-85
2023/07/13 09:11:55;;;;;;;18.48;9.25;;;;;;;29.52;41.39;95491.66;5028716;28;20120;-82
2023/07/13 09:14:48;;;;;;;20.05;9.73;;;;;;;29.61;41.98;95494.00;5020592;28;20503;-81
2023/07/13 09:17:27;;;;;;;24.80;9.93;;;;;;;29.74;41.64;95496.00;5048310;28;20033;-82
2023/07/13 09:20:04;;;;;;;18.92;8.43;;;;;;;29.84;41.16;95497.16;5049088;28;20033;-82
2023/07/13 09:22:34;;;;;;;14.73;7.93;;;;;;;29.96;41.27;95485.09;5048761;28;20115;-82
2023/07/13 09:25:12;;;;;;;19.55;9.45;;;;;;;30.03;41.37;95496.81;5031548;28;20079;-81
2023/07/13 09:27:45;;;;;;;18.83;8.85;;;;;;;30.12;40.24;95496.44;5013411;28;20042;-81
2023/07/13 09:30:14;;;;;;;19.30;8.32;;;;;;;30.10;40.20;95493.31;4994704;28;20108;-81
2023/07/13 09:32:43;;;;;;;16.83;8.57;;;;;;;29.77;42.29;95429.59;5007266;28;20500;-81
2023/07/13 09:35:14;;;;;;;20.05;9.02;;;;;;;29.95;40.10;95458.94;5000637;28;20493;-81
2023/07/13 09:37:43;;;;;;;25.25;9.88;;;;;;;30.16;39.79;95487.03;4997455;28;20036;-80
2023/07/13 09:40:25;;;;;;;21.95;8.98;;;;;;;30.32;40.61;95486.63;5007922;28;20268;-80
2023/07/13 09:42:54;;;;;;;20.25;9.20;;;;;;;30.24;39.86;95457.72;5006604;28;20029;-81
2023/07/13 09:45:28;;;;;;;17.15;9.32;;;;;;;30.26;39.31;95466.34;5009258;28;20034;-81
2023/07/13 09:48:19;;;;;;;22.63;9.20;;;;;;;30.21;40.10;95431.94;4994518;28;20026;-81
2023/07/13 09:50:45;;;;;;;28.05;10.07;;;;;;;30.97;39.53;95445.03;5006529;28;20049;-81
2023/07/13 09:53:16;;;;;;;21.58;9.77;;;;;;;31.68;37.67;95416.47;4987503;28;20493;-81
2023/07/13 09:55:44;;;;;;;19.35;8.45;;;;;;;32.70;35.92;95423.00;4996654;28;20037;-81
2023/07/13 09:58:23;;;;;;;14.25;8.25;;;;;;;33.59;34.34;95424.56;5010449;28;20041;-81
2023/07/13 10:00:59;;;;;;;15.93;8.43;;;;;;;34.28;33.72;95447.88;5010313;28;20030;-81
2023/07/13 10:03:32;;;;;;;14.40;7.72;;;;;;;35.32;32.74;95439.22;5003614;28;20041;-81
2023/07/13 10:06:10;;;;;;;17.05;8.52;;;;;;;35.78;30.19;95394.03;5000837;28;20069;-81
2023/07/13 10:08:36;;;;;;;20.95;8.48;;;;;;;36.28;29.24;95393.56;5009178;28;20029;-81
2023/07/13 10:11:11;;;;;;;23.08;7.95;;;;;;;36.66;28.39;95372.41;5002317;28;20034;-81
2023/07/13 10:13:41;;;;;;;18.70;7.75;;;;;;;37.81;27.56;95434.19;4994954;28;20474;-81
2023/07/13 10:16:08;;;;;;;19.17;7.72;;;;;;;38.25;26.38;95424.06;5010703;28;20073;-81
2023/07/13 10:18:43;;;;;;;16.27;7.70;;;;;;;38.52;25.56;95376.47;5010081;28;20026;-81
2023/07/13 10:21:21;;;;;;;15.13;7.28;;;;;;;39.12;26.41;95437.28;5010603;28;20061;-81
2023/07/13 10:23:51;;;;;;;16.52;7.15;;;;;;;39.48;24.47;95433.94;5000156;28;20141;-81
2023/07/13 10:26:22;;;;;;;17.88;7.10;;;;;;;39.82;24.78;95427.47;5015496;28;20104;-80
2023/07/13 10:28:53;;;;;;;12.90;6.63;;;;;;;39.83;24.26;95406.78;5050700;28;20039;-81
2023/07/13 10:31:19;;;;;;;21.35;6.18;;;;;;;39.77;22.35;95353.84;5051790;28;20452;-81
2023/07/13 10:33:45;;;;;;;18.83;5.65;;;;;;;40.25;21.38;95407.84;5051191;28;20063;-81
2023/07/13 10:36:15;;;;;;;11.20;5.95;;;;;;;39.25;21.13;95397.13;5033262;28;20489;-81
2023/07/13 10:38:41;;;;;;;17.75;6.05;;;;;;;38.84;21.96;95420.41;5051786;28;20446;-80
2023/07/13 10:41:15;;;;;;;11.77;5.35;;;;;;;39.01;22.22;95409.94;5051091;28;20460;-80
2023/07/13 10:43:50;;;;;;;17.27;5.22;;;;;;;39.28;21.78;95407.31;5032920;28;20032;-81
2023/07/13 10:46:19;;;;;;;14.35;5.90;;;;;;;39.33;21.11;95395.63;5032628;28;20045;-80
2023/07/13 10:48:49;;;;;;;10.90;4.85;;;;;;;38.79;20.80;95351.69;5032660;28;20483;-80
2023/07/13 10:51:15;;;;;;;;;;;;;;;38.76;20.39;95401.72;5027667;28;20487;-81
2023/07/13 10:53:41;;;;;;;12.98;5.13;;;;;;;38.67;20.13;95393.34;5027833;28;20018;-80
2023/07/13 10:56:21;;;;;;;13.85;4.40;;;;;;;38.27;20.38;95387.63;5050814;28;20594;-80
2023/07/13 10:58:47;;;;;;;17.98;5.72;;;;;;;38.07;20.53;95374.81;5033067;28;20036;-81
2023/07/13 11:01:15;;;;;;;13.95;5.10;;;;;;;38.05;20.60;95357.13;5032353;28;20043;-81
2023/07/13 11:03:52;;;;;;;6.63;4.50;;;;;;;38.18;20.38;95383.53;5031892;28;20451;-81
2023/07/13 11:06:46;;;;;;;11.10;4.45;;;;;;;37.90;20.84;95373.41;5031964;28;20037;-81
2023/07/13 11:09:33;;;;;;;14.80;5.80;;;;;;;37.94;19.60;95362.19;5032657;28;20108;-80
2023/07/13 11:12:00;;;;;;;9.48;4.82;;;;;;;37.88;19.47;95364.75;5032425;28;20534;-80
2023/07/13 11:14:41;;;;;;;13.23;4.82;;;;;;;36.81;20.63;95375.53;5050874;28;20029;-80
2023/07/13 11:17:30;;;;;;;10.68;4.72;;;;;;;37.01;21.34;95369.81;5050120;28;20036;-80
2023/07/13 11:20:23;;;;;;;15.02;4.50;;;;;;;37.29;21.63;95355.19;5014632;28;20095;-81
2023/07/13 11:23:07;;;;;;;11.35;4.60;;;;;;;37.96;20.69;95343.16;5041361;28;20140;-81
2023/07/13 11:25:37;;;;;;;16.85;5.72;;;;;;;38.29;20.78;95363.03;5036147;28;20084;-80
2023/07/13 11:28:12;;;;;;;11.00;5.27;;;;;;;37.81;21.04;95360.25;5037215;28;20045;-80